Blue Oak Ranch Reserve, California Weather observations

Data are for 10 minute period ending at time listed.
 Day   Time   Solar   Ave.   Ave.  Ave.  Vector  Max.   Baro.   Total    
  of    of     Rad.   Air    Rel.  Wind   Wind   Wind  Press.  Precip.   
Year   Day            Temp.  Hum.  Speed  Dir.   Gust                    
2016   (PST)  Kw/m2    F      %     mph   deg.    mph    mb.     in.     
-------------------------------------------------------------------------
 341    6:30   0.00   31.7    97    2.0    50     3.7   948.6    0.00 
 341    6:40   0.00   32.0    97    1.3    23     2.5   948.7    0.00 
 341    6:50   0.00   31.5    96    1.4    60     2.7   948.7    0.00 
 341    7:00   0.00   30.9    96    2.1    58     3.4   948.6    0.00 
 341    7:10   0.01   30.6    96    0.6   332     1.8   948.6    0.00 
 341    7:20   0.02   30.8    97    1.2   315     2.3   948.7    0.00 
 341    7:30   0.03   31.4    97    0.5   357     1.6   948.8    0.00 
 341    7:40   0.03   31.9    97    2.4   293     3.4   948.8    0.00 
 341    7:50   0.04   32.0    96    0.9   304     3.1   949.0    0.00 
 341    8:00   0.09   32.9    96    0.4   314     1.5   949.1    0.00 
 341    8:10   0.14   35.7    95    1.3   292     3.8   949.3    0.00 
 341    8:20   0.14   37.8    92    2.4   287     3.2   949.6    0.00 
 341    8:30   0.18   39.5    90    3.0   305     6.5   949.8    0.00 
 341    8:40   0.10   40.4    86    3.4   306     6.1   950.0    0.00 
 341    8:50   0.09   40.0    87    2.7   305     6.2   950.1    0.00 
 341    9:00   0.12   40.3    88    2.6   286     5.8   950.4    0.00 
 341    9:10   0.14   40.5    87    4.5   296     8.0   950.6    0.00 
 341    9:20   0.21   41.0    83    4.9   301     8.8   950.6    0.00 
 341    9:30   0.29   41.7    78    5.9   299     9.2   950.7    0.00 
 341    9:40   0.30   41.8    73    6.6   301    10.7   950.7    0.00 
 341    9:50   0.36   41.9    69    6.4   303    10.2   950.7    0.00 
 341   10:00   0.42   44.6    66    5.4   280     9.1   950.8    0.00 
 341   10:10   0.43   46.2    60    5.7   280     9.4   950.7    0.00 
 341   10:20   0.41   46.7    58    6.1   288     9.9   950.5    0.00 
 341   10:30   0.47   46.9    58    5.9   284    11.0   950.5    0.00 
 341   10:40   0.45   47.9    57    5.4   275    11.4   950.4    0.00 
 341   10:50   0.46   48.2    57    6.4   281    12.9   950.2    0.00 
 341   11:00   0.44   47.0    58   10.1   306    15.8   950.1    0.00 
 341   11:10   0.49   46.7    59    8.5   295    15.9   950.0    0.00 
 341   11:20   0.44   46.9    58    9.0   301    18.3   949.9    0.00 
 341   11:30   0.47   47.4    57    7.5   292    16.7   950.0    0.00 
 341   11:40   0.49   46.8    59    9.7   307    18.9   950.1    0.00 
 341   11:50   0.49   46.5    60    6.5   297    19.1   950.0    0.00 
 341   12:00   0.48   46.4    61    9.5   307    17.4   949.9    0.00 
 341   12:10   0.50   47.1    60    8.2   307    13.7   949.7    0.00 
 341   12:20   0.52   47.0    59    9.1   313    14.6   949.5    0.00 
 341   12:30   0.51   47.0    58    9.5   314    17.5   949.3    0.00 
 341   12:40   0.51   47.0    59   10.8   307    16.8   949.1    0.00 
 341   12:50   0.46   47.2    59    8.5   310    15.3   949.1    0.00 
 341   13:00   0.38   47.6    58    8.8   292    16.6   949.2    0.00 
 341   13:10   0.33   47.0    59    8.8   300    14.6   949.2    0.00 
 341   13:20   0.25   46.7    59    9.5   299    16.4   949.2    0.00 
 341   13:30   0.49   46.7    59    7.1   318    12.7   949.2    0.00 
 341   13:40   0.52   48.0    59    6.1   297    13.4   949.3    0.00 
 341   13:50   0.50   49.3    57    6.1   273    11.1   949.1    0.00 
 341   14:00   0.45   49.4    56    5.8   285    11.0   948.8    0.00 
 341   14:10   0.39   48.4    56    6.9   290    14.2   948.8    0.00 
 341   14:20   0.41   48.8    56    7.0   285    13.9   948.8    0.00 
 341   14:30   0.38   48.2    57    8.9   291    13.6   948.7    0.00 
 341   14:40   0.25   47.5    58   11.5   282    17.7   948.9    0.00 
 341   14:50   0.18   46.9    60    9.8   282    15.4   949.0    0.00 
 341   15:00   0.26   46.2    61    7.9   282    13.7   949.1    0.00 
 341   15:10   0.36   47.4    59    7.2   295    12.9   949.2    0.00 
 341   15:20   0.25   47.4    61    9.4   293    15.1   949.2    0.00 
 341   15:30   0.14   46.3    64    9.1   282    13.2   949.3    0.00 
 341   15:40   0.08   45.4    67    7.2   279    11.8   949.5    0.00 
 341   15:50   0.11   44.9    68    6.4   281    11.5   949.7    0.00 
 341   16:00   0.14   45.6    67    6.9   284    11.3   949.7    0.00 
 341   16:10   0.11   45.7    66    5.7   278     9.0   949.6    0.00 
 341   16:20   0.07   45.4    66    5.1   282     8.8   949.6    0.00 
 341   16:30   0.03   44.3    67    5.9   282    10.3   949.7    0.00 
 341   16:40   0.01   43.1    70    4.3   281     7.7   949.7    0.00 
 341   16:50   0.01   42.0    72    2.6   318     5.8   949.7    0.00 
 341   17:00   0.01   40.8    75    2.0   347     3.1   949.7    0.00 
 341   17:10   0.00   39.5    78    1.6     8     3.1   949.7    0.00 
 341   17:20   0.00   38.5    81    1.6    20     2.9   949.8    0.00 
 341   17:30   0.00   38.5    82    0.7   330     2.0   949.8    0.00 
 341   17:40   0.00   38.9    81    0.4   306     1.6   950.0    0.00 
 341   17:50   0.00   39.5    82    1.3   317     3.8   950.0    0.00 
 341   18:00   0.00   40.2    81    0.8   229     2.9   950.1    0.00 
 341   18:10   0.00   39.5    82    0.2   356     1.3   950.2    0.00 
 341   18:20   0.00   38.5    84    1.2   297     2.3   950.2    0.00 
 341   18:30   0.00   37.4    86    1.1    33     1.9   950.2    0.00 
 341   18:40   0.00   37.2    88    0.6    61     2.6   950.1    0.00 
 341   18:50   0.00   37.5    88    1.8    25     3.0   950.2    0.00 
 341   19:00   0.00   39.1    89    1.7   338     3.7   950.2    0.00 
 341   19:10   0.00   39.8    88    2.2   336     4.7   950.3    0.00 
 341   19:20   0.00   40.7    86    1.9   311     3.9   950.3    0.00 
 341   19:30   0.00   40.6    86    3.1   317     5.5   950.3    0.00 
 341   19:40   0.00   40.4    86    0.8   311     2.4   950.4    0.00 
 341   19:50   0.00   39.6    87    0.8   306     1.9   950.3    0.00 
 341   20:00   0.00   38.8    88    1.3   305     2.0   950.4    0.00 
 341   20:10   0.00   38.7    90    1.4   302     2.2   950.5    0.00 
 341   20:20   0.00   38.7    90    0.4   329     1.9   950.5    0.00 
 341   20:30   0.00   38.8    90    0.1   274     1.2   950.6    0.00 
 341   20:40   0.00   39.4    90    1.0   284     2.9   950.6    0.00 
 341   20:50   0.00   39.8    90    2.2   303     4.5   950.6    0.00 
 341   21:00   0.00   40.2    90    3.1   303     4.9   950.6    0.00 
 341   21:10   0.00   40.5    89    2.1   305     4.0   950.6    0.00 
 341   21:20   0.00   40.4    88    1.0   324     3.1   950.6    0.00 
 341   21:30   0.00   40.2    89    3.0   303     4.7   950.6    0.00 
 341   21:40   0.00   39.5    89    2.6   331     4.5   950.6    0.00 
 341   21:50   0.00   39.6    89    2.1   333     4.1   950.8    0.00 
 341   22:00   0.00   38.4    88    0.8    18     2.6   950.8    0.00 
 341   22:10   0.00   36.8    90    0.4   326     1.5   950.9    0.00 
 341   22:20   0.00   35.9    90    0.9    55     1.9   951.0    0.00 
 341   22:30   0.00   35.1    91    0.4   252     1.2   951.0    0.00 
 341   22:40   0.00   34.6    92    0.4    58     1.5   951.0    0.00 
 341   22:50   0.00   34.5    93    0.7    60     2.2   950.9    0.00 
 341   23:00   0.00   34.5    93    0.4   311     2.3   950.9    0.00 
 341   23:10   0.00   34.6    93    1.1   290     2.9   951.0    0.00 
 341   23:20   0.00   34.8    94    0.0     0     0.0   951.1    0.00 
 341   23:30   0.00   34.8    94    0.1   296     0.9   951.2    0.00 
 341   23:40   0.00   35.2    94    0.1   294     1.1   951.2    0.00 
 341   23:50   0.00   35.1    94    1.1   292     1.9   951.2    0.00 
 342    0:00   0.00   35.1    94    0.0     0     0.0   951.1    0.00 
 342    0:10   0.00   35.1    94    0.3    38     1.5   951.0    0.00 
 342    0:20   0.00   34.8    94    0.4   280     1.5   951.1    0.00 
 342    0:30   0.00   34.3    94    0.4   332     1.4   951.1    0.00 
 342    0:40   0.00   33.6    94    0.8    68     1.6   951.1    0.00 
 342    0:50   0.00   33.4    95    0.1    62     1.2   951.1    0.00 
 342    1:00   0.00   33.3    94    0.0   332     0.4   951.1    0.00 
 342    1:10   0.00   33.0    95    0.0    47     0.7   951.2    0.00 
 342    1:20   0.00   33.0    95    0.0     0     0.0   951.2    0.00 
 342    1:30   0.00   32.9    95    0.0     0     0.0   951.1    0.00 
 342    1:40   0.00   32.4    95    0.8   299     1.7   951.2    0.00 
 342    1:50   0.00   32.1    95    0.3    54     1.0   951.2    0.00 
 342    2:00   0.00   32.0    96    0.3   283     2.1   951.2    0.00 
 342    2:10   0.00   31.6    95    0.9   287     2.2   951.0    0.00 
 342    2:20   0.00   32.0    96    0.5   316     1.5   950.9    0.00 
 342    2:30   0.00   31.9    96    0.8   278     1.8   950.9    0.00 
 342    2:40   0.00   31.5    96    0.2    33     1.2   950.8    0.00 
 342    2:50   0.00   31.7    96    0.6   319     1.5   950.7    0.00 
 342    3:00   0.00   31.5    96    0.9   321     1.9   950.6    0.00 
 342    3:10   0.00   32.1    96    0.5    42     1.6   950.6    0.00 
 342    3:20   0.00   32.2    95    1.4    58     3.4   950.4    0.00 
 342    3:30   0.00   31.8    95    0.9   294     2.0   950.3    0.00 
 342    3:40   0.00   31.3    95    0.2   358     1.4   950.3    0.00 
 342    3:50   0.00   31.6    95    2.3   290     4.0   950.3    0.00 
 342    4:00   0.00   31.4    95    2.5   300     3.5   950.4    0.00 
 342    4:10   0.00   31.7    95    1.0   292     2.6   950.3    0.00 
 342    4:20   0.00   31.6    94    0.5    25     2.0   950.4    0.00 
 342    4:30   0.00   31.0    94    1.4    64     2.8   950.4    0.00 
 342    4:40   0.00   30.3    93    1.0    22     2.3   950.3    0.00 
 342    4:50   0.00   30.4    94    0.1   280     0.9   950.3    0.00 
 342    5:00   0.00   30.5    94    0.6   280     2.2   950.3    0.00 
 342    5:10   0.00   30.0    94    1.3   296     2.8   950.4    0.00 
 342    5:20   0.00   30.0    94    0.9    38     2.1   950.3    0.00 
 342    5:30   0.00   29.9    94    0.5    97     1.7   950.4    0.00 
 342    5:40   0.00   29.6    94    0.7   294     2.4   950.3    0.00 
 342    5:50   0.00   29.5    94    0.5   306     1.7   950.4    0.00 
 342    6:00   0.00   29.5    94    0.9   302     2.0   950.4    0.00 
 342    6:10   0.00   29.4    94    1.2   307     2.4   950.5    0.00 
 342    6:20   0.00   29.4    94    0.4    10     1.5   950.7    0.00 

Return to Blue Oak Ranch Reserve graphs page.


Western Regional Climate Center,wrcc@dri.edu